sensor_id;sensor_type;location;lat;lon;timestamp;temperature;humidity
26517;DHT22;14190;51.342;6.338;2022-10-17T00:00:34;17.30;99.90
26517;DHT22;14190;51.342;6.338;2022-10-17T00:03:03;17.30;99.90
26517;DHT22;14190;51.342;6.338;2022-10-17T00:05:32;17.30;99.90
26517;DHT22;14190;51.342;6.338;2022-10-17T00:08:01;17.30;99.90
26517;DHT22;14190;51.342;6.338;2022-10-17T00:10:30;17.20;99.90
26517;DHT22;14190;51.342;6.338;2022-10-17T00:12:59;17.30;99.90
26517;DHT22;14190;51.342;6.338;2022-10-17T00:15:28;17.20;99.90
26517;DHT22;14190;51.342;6.338;2022-10-17T00:17:57;17.20;99.90
26517;DHT22;14190;51.342;6.338;2022-10-17T00:20:26;17.20;99.90
26517;DHT22;14190;51.342;6.338;2022-10-17T00:22:55;17.20;99.90
26517;DHT22;14190;51.342;6.338;2022-10-17T00:25:24;17.10;99.90
26517;DHT22;14190;51.342;6.338;2022-10-17T00:27:52;17.20;99.90
26517;DHT22;14190;51.342;6.338;2022-10-17T00:30:21;17.10;99.90
26517;DHT22;14190;51.342;6.338;2022-10-17T00:32:50;17.10;99.90
26517;DHT22;14190;51.342;6.338;2022-10-17T00:35:18;17.10;99.90
26517;DHT22;14190;51.342;6.338;2022-10-17T00:37:48;17.10;99.90
26517;DHT22;14190;51.342;6.338;2022-10-17T00:40:17;17.10;99.90
26517;DHT22;14190;51.342;6.338;2022-10-17T00:42:46;17.10;99.90
26517;DHT22;14190;51.342;6.338;2022-10-17T00:45:20;17.10;99.90
26517;DHT22;14190;51.342;6.338;2022-10-17T00:47:47;17.10;99.90
26517;DHT22;14190;51.342;6.338;2022-10-17T00:50:15;17.10;99.90
26517;DHT22;14190;51.342;6.338;2022-10-17T00:52:45;17.10;99.90
26517;DHT22;14190;51.342;6.338;2022-10-17T00:55:19;17.10;99.90
26517;DHT22;14190;51.342;6.338;2022-10-17T00:57:47;17.10;99.90
26517;DHT22;14190;51.342;6.338;2022-10-17T01:00:16;17.00;99.90
26517;DHT22;14190;51.342;6.338;2022-10-17T01:02:45;17.00;99.90
26517;DHT22;14190;51.342;6.338;2022-10-17T01:05:14;17.10;99.90
26517;DHT22;14190;51.342;6.338;2022-10-17T01:07:43;17.10;99.90
26517;DHT22;14190;51.342;6.338;2022-10-17T01:10:12;17.00;99.90
26517;DHT22;14190;51.342;6.338;2022-10-17T01:12:44;17.00;99.90
26517;DHT22;14190;51.342;6.338;2022-10-17T01:15:14;17.00;99.90
26517;DHT22;14190;51.342;6.338;2022-10-17T01:20:25;17.00;99.90
26517;DHT22;14190;51.342;6.338;2022-10-17T01:22:58;17.10;99.90
26517;DHT22;14190;51.342;6.338;2022-10-17T01:25:41;17.00;99.90
26517;DHT22;14190;51.342;6.338;2022-10-17T01:28:09;17.00;99.90
26517;DHT22;14190;51.342;6.338;2022-10-17T01:33:25;16.90;99.90
26517;DHT22;14190;51.342;6.338;2022-10-17T01:35:56;17.00;99.90
26517;DHT22;14190;51.342;6.338;2022-10-17T01:38:24;16.90;99.90
26517;DHT22;14190;51.342;6.338;2022-10-17T01:40:55;16.90;99.90
26517;DHT22;14190;51.342;6.338;2022-10-17T01:43:25;16.90;99.90
26517;DHT22;14190;51.342;6.338;2022-10-17T01:46:05;16.90;99.90
26517;DHT22;14190;51.342;6.338;2022-10-17T01:48:33;16.90;99.90
26517;DHT22;14190;51.342;6.338;2022-10-17T01:51:07;16.90;99.90
26517;DHT22;14190;51.342;6.338;2022-10-17T01:53:34;16.90;99.90
26517;DHT22;14190;51.342;6.338;2022-10-17T01:56:04;16.90;99.90
26517;DHT22;14190;51.342;6.338;2022-10-17T01:58:38;16.90;99.90
26517;DHT22;14190;51.342;6.338;2022-10-17T02:01:07;16.90;99.90
26517;DHT22;14190;51.342;6.338;2022-10-17T02:03:38;16.90;99.90
26517;DHT22;14190;51.342;6.338;2022-10-17T02:06:07;16.90;99.90
26517;DHT22;14190;51.342;6.338;2022-10-17T02:08:46;17.00;99.90
26517;DHT22;14190;51.342;6.338;2022-10-17T02:11:16;16.90;99.90
26517;DHT22;14190;51.342;6.338;2022-10-17T02:14:04;16.90;99.90
26517;DHT22;14190;51.342;6.338;2022-10-17T02:19:33;16.90;99.90
26517;DHT22;14190;51.342;6.338;2022-10-17T02:22:03;16.80;99.90
26517;DHT22;14190;51.342;6.338;2022-10-17T02:29:56;16.80;99.90
26517;DHT22;14190;51.342;6.338;2022-10-17T02:32:33;16.80;99.90
26517;DHT22;14190;51.342;6.338;2022-10-17T02:34:56;16.80;99.90
26517;DHT22;14190;51.342;6.338;2022-10-17T02:37:27;16.80;99.90
26517;DHT22;14190;51.342;6.338;2022-10-17T02:39:58;16.80;99.90
26517;DHT22;14190;51.342;6.338;2022-10-17T02:42:27;16.80;99.90
26517;DHT22;14190;51.342;6.338;2022-10-17T02:44:58;16.80;99.90
26517;DHT22;14190;51.342;6.338;2022-10-17T02:47:28;16.80;99.90
26517;DHT22;14190;51.342;6.338;2022-10-17T02:49:57;16.80;99.90
26517;DHT22;14190;51.342;6.338;2022-10-17T02:52:27;16.80;99.90
26517;DHT22;14190;51.342;6.338;2022-10-17T02:55:02;16.80;99.90
26517;DHT22;14190;51.342;6.338;2022-10-17T02:57:33;16.80;99.90
26517;DHT22;14190;51.342;6.338;2022-10-17T03:00:00;16.80;99.90
26517;DHT22;14190;51.342;6.338;2022-10-17T03:02:37;16.90;99.90
26517;DHT22;14190;51.342;6.338;2022-10-17T03:05:04;16.80;99.90
26517;DHT22;14190;51.342;6.338;2022-10-17T03:07:32;16.90;99.90
26517;DHT22;14190;51.342;6.338;2022-10-17T03:10:01;16.80;99.90
26517;DHT22;14190;51.342;6.338;2022-10-17T03:12:30;16.90;99.90
26517;DHT22;14190;51.342;6.338;2022-10-17T03:14:59;16.90;99.90
26517;DHT22;14190;51.342;6.338;2022-10-17T03:17:29;16.90;99.90
26517;DHT22;14190;51.342;6.338;2022-10-17T03:19:57;16.90;99.90
26517;DHT22;14190;51.342;6.338;2022-10-17T03:22:26;16.90;99.90
26517;DHT22;14190;51.342;6.338;2022-10-17T03:24:55;16.90;99.90
26517;DHT22;14190;51.342;6.338;2022-10-17T03:27:24;16.90;99.90
26517;DHT22;14190;51.342;6.338;2022-10-17T03:29:53;16.90;99.90
26517;DHT22;14190;51.342;6.338;2022-10-17T03:32:22;16.80;99.90
26517;DHT22;14190;51.342;6.338;2022-10-17T03:34:51;16.80;99.90
26517;DHT22;14190;51.342;6.338;2022-10-17T03:37:19;16.80;99.90
26517;DHT22;14190;51.342;6.338;2022-10-17T03:39:50;16.80;99.90
26517;DHT22;14190;51.342;6.338;2022-10-17T03:42:18;16.80;99.90
26517;DHT22;14190;51.342;6.338;2022-10-17T03:44:47;16.90;99.90
26517;DHT22;14190;51.342;6.338;2022-10-17T03:47:17;16.90;99.90
26517;DHT22;14190;51.342;6.338;2022-10-17T03:49:46;16.90;99.90
26517;DHT22;14190;51.342;6.338;2022-10-17T03:52:15;16.90;99.90
26517;DHT22;14190;51.342;6.338;2022-10-17T03:54:45;16.90;99.90
26517;DHT22;14190;51.342;6.338;2022-10-17T03:57:14;16.90;99.90
26517;DHT22;14190;51.342;6.338;2022-10-17T03:59:42;16.90;99.90
26517;DHT22;14190;51.342;6.338;2022-10-17T04:02:13;16.90;99.90
26517;DHT22;14190;51.342;6.338;2022-10-17T04:04:41;16.90;99.90
26517;DHT22;14190;51.342;6.338;2022-10-17T04:07:10;16.90;99.90
26517;DHT22;14190;51.342;6.338;2022-10-17T04:09:41;16.90;99.90
26517;DHT22;14190;51.342;6.338;2022-10-17T04:12:14;16.90;99.90
26517;DHT22;14190;51.342;6.338;2022-10-17T04:14:43;16.90;99.90
26517;DHT22;14190;51.342;6.338;2022-10-17T04:17:12;16.80;99.90
26517;DHT22;14190;51.342;6.338;2022-10-17T04:19:41;16.80;99.90
26517;DHT22;14190;51.342;6.338;2022-10-17T04:22:10;16.80;99.90
26517;DHT22;14190;51.342;6.338;2022-10-17T04:24:39;16.80;99.90
26517;DHT22;14190;51.342;6.338;2022-10-17T04:27:10;16.80;99.90
26517;DHT22;14190;51.342;6.338;2022-10-17T04:29:40;16.80;99.90
26517;DHT22;14190;51.342;6.338;2022-10-17T04:32:12;16.80;99.90
26517;DHT22;14190;51.342;6.338;2022-10-17T04:34:46;16.80;99.90
26517;DHT22;14190;51.342;6.338;2022-10-17T04:37:14;16.80;99.90
26517;DHT22;14190;51.342;6.338;2022-10-17T04:39:43;16.80;99.90
26517;DHT22;14190;51.342;6.338;2022-10-17T04:42:12;16.80;99.90
26517;DHT22;14190;51.342;6.338;2022-10-17T04:44:41;16.80;99.90
26517;DHT22;14190;51.342;6.338;2022-10-17T04:47:09;16.80;99.90
26517;DHT22;14190;51.342;6.338;2022-10-17T04:49:38;16.80;99.90
26517;DHT22;14190;51.342;6.338;2022-10-17T04:52:09;16.90;99.90
26517;DHT22;14190;51.342;6.338;2022-10-17T04:54:42;16.90;99.90
26517;DHT22;14190;51.342;6.338;2022-10-17T04:57:13;16.90;99.90
26517;DHT22;14190;51.342;6.338;2022-10-17T04:59:43;16.90;99.90
26517;DHT22;14190;51.342;6.338;2022-10-17T05:02:14;16.90;99.90
26517;DHT22;14190;51.342;6.338;2022-10-17T05:04:42;16.90;99.90
26517;DHT22;14190;51.342;6.338;2022-10-17T05:07:12;17.00;99.90
26517;DHT22;14190;51.342;6.338;2022-10-17T05:09:48;17.00;99.90
26517;DHT22;14190;51.342;6.338;2022-10-17T05:12:17;17.00;99.90
26517;DHT22;14190;51.342;6.338;2022-10-17T05:14:45;17.00;99.90
26517;DHT22;14190;51.342;6.338;2022-10-17T05:17:14;17.00;99.90
26517;DHT22;14190;51.342;6.338;2022-10-17T05:19:43;16.90;99.90
26517;DHT22;14190;51.342;6.338;2022-10-17T05:22:12;17.00;99.90
26517;DHT22;14190;51.342;6.338;2022-10-17T05:24:41;17.00;99.90
26517;DHT22;14190;51.342;6.338;2022-10-17T05:27:11;17.00;99.90
26517;DHT22;14190;51.342;6.338;2022-10-17T05:29:40;17.00;99.90
26517;DHT22;14190;51.342;6.338;2022-10-17T05:32:17;17.00;99.90
26517;DHT22;14190;51.342;6.338;2022-10-17T05:34:46;17.00;99.90
26517;DHT22;14190;51.342;6.338;2022-10-17T05:37:16;17.00;99.90
26517;DHT22;14190;51.342;6.338;2022-10-17T05:39:46;16.90;99.90
26517;DHT22;14190;51.342;6.338;2022-10-17T05:42:16;16.90;99.90
26517;DHT22;14190;51.342;6.338;2022-10-17T05:44:46;16.90;99.90
26517;DHT22;14190;51.342;6.338;2022-10-17T05:47:16;16.90;99.90
26517;DHT22;14190;51.342;6.338;2022-10-17T05:49:45;16.90;99.90
26517;DHT22;14190;51.342;6.338;2022-10-17T05:52:14;16.90;99.90
26517;DHT22;14190;51.342;6.338;2022-10-17T05:54:47;16.90;99.90
26517;DHT22;14190;51.342;6.338;2022-10-17T05:57:16;16.90;99.90
26517;DHT22;14190;51.342;6.338;2022-10-17T05:59:45;16.90;99.90
26517;DHT22;14190;51.342;6.338;2022-10-17T06:02:15;16.80;99.90
26517;DHT22;14190;51.342;6.338;2022-10-17T06:04:44;16.80;99.90
26517;DHT22;14190;51.342;6.338;2022-10-17T06:07:15;16.80;99.90
26517;DHT22;14190;51.342;6.338;2022-10-17T06:09:44;16.80;99.90
26517;DHT22;14190;51.342;6.338;2022-10-17T06:12:13;16.90;99.90
26517;DHT22;14190;51.342;6.338;2022-10-17T06:14:42;16.90;99.90
26517;DHT22;14190;51.342;6.338;2022-10-17T06:17:12;16.90;99.90
26517;DHT22;14190;51.342;6.338;2022-10-17T06:19:40;16.90;99.90
26517;DHT22;14190;51.342;6.338;2022-10-17T06:22:11;17.00;99.90
26517;DHT22;14190;51.342;6.338;2022-10-17T06:24:40;17.00;99.90
26517;DHT22;14190;51.342;6.338;2022-10-17T06:27:09;17.00;99.90
26517;DHT22;14190;51.342;6.338;2022-10-17T06:29:38;17.00;99.90
26517;DHT22;14190;51.342;6.338;2022-10-17T06:32:06;17.00;99.90
26517;DHT22;14190;51.342;6.338;2022-10-17T06:34:35;17.10;99.90
26517;DHT22;14190;51.342;6.338;2022-10-17T06:37:04;17.10;99.90
26517;DHT22;14190;51.342;6.338;2022-10-17T06:39:34;17.10;99.90
26517;DHT22;14190;51.342;6.338;2022-10-17T06:42:07;17.20;99.90
26517;DHT22;14190;51.342;6.338;2022-10-17T06:44:47;17.20;99.90
26517;DHT22;14190;51.342;6.338;2022-10-17T06:47:34;17.20;99.90
26517;DHT22;14190;51.342;6.338;2022-10-17T06:50:04;17.20;99.90
26517;DHT22;14190;51.342;6.338;2022-10-17T06:52:44;17.20;99.90
26517;DHT22;14190;51.342;6.338;2022-10-17T06:55:14;17.30;99.90
26517;DHT22;14190;51.342;6.338;2022-10-17T06:57:54;17.30;99.90
26517;DHT22;14190;51.342;6.338;2022-10-17T07:00:41;17.40;99.90
26517;DHT22;14190;51.342;6.338;2022-10-17T07:03:12;17.40;99.90
26517;DHT22;14190;51.342;6.338;2022-10-17T07:05:40;17.40;99.90
26517;DHT22;14190;51.342;6.338;2022-10-17T07:08:09;17.50;99.90
26517;DHT22;14190;51.342;6.338;2022-10-17T07:10:38;17.60;99.90
26517;DHT22;14190;51.342;6.338;2022-10-17T07:13:08;17.60;99.90
26517;DHT22;14190;51.342;6.338;2022-10-17T07:15:37;17.60;99.90
26517;DHT22;14190;51.342;6.338;2022-10-17T07:18:06;17.70;99.90
26517;DHT22;14190;51.342;6.338;2022-10-17T07:20:35;17.80;99.90
26517;DHT22;14190;51.342;6.338;2022-10-17T07:23:04;17.80;99.90
26517;DHT22;14190;51.342;6.338;2022-10-17T07:25:33;17.90;99.90
26517;DHT22;14190;51.342;6.338;2022-10-17T07:28:04;17.90;99.90
26517;DHT22;14190;51.342;6.338;2022-10-17T07:30:33;17.90;99.90
26517;DHT22;14190;51.342;6.338;2022-10-17T07:33:04;18.00;99.90
26517;DHT22;14190;51.342;6.338;2022-10-17T07:35:32;18.00;99.90
26517;DHT22;14190;51.342;6.338;2022-10-17T07:38:01;18.10;99.90
26517;DHT22;14190;51.342;6.338;2022-10-17T07:40:30;18.10;99.90
26517;DHT22;14190;51.342;6.338;2022-10-17T07:42:59;18.20;99.90
26517;DHT22;14190;51.342;6.338;2022-10-17T07:45:28;18.40;99.90
26517;DHT22;14190;51.342;6.338;2022-10-17T07:47:57;18.60;99.90
26517;DHT22;14190;51.342;6.338;2022-10-17T07:50:26;18.70;99.90
26517;DHT22;14190;51.342;6.338;2022-10-17T07:52:55;18.80;99.90
26517;DHT22;14190;51.342;6.338;2022-10-17T07:55:24;18.90;99.90
26517;DHT22;14190;51.342;6.338;2022-10-17T07:57:53;19.00;99.90
26517;DHT22;14190;51.342;6.338;2022-10-17T08:00:21;19.20;99.90
26517;DHT22;14190;51.342;6.338;2022-10-17T08:02:50;19.30;99.90
26517;DHT22;14190;51.342;6.338;2022-10-17T08:05:19;19.40;99.90
26517;DHT22;14190;51.342;6.338;2022-10-17T08:07:48;19.50;99.90
26517;DHT22;14190;51.342;6.338;2022-10-17T08:10:17;19.70;99.90
26517;DHT22;14190;51.342;6.338;2022-10-17T08:12:46;19.80;99.90
26517;DHT22;14190;51.342;6.338;2022-10-17T08:15:14;20.00;99.90
26517;DHT22;14190;51.342;6.338;2022-10-17T08:17:43;20.10;99.90
26517;DHT22;14190;51.342;6.338;2022-10-17T08:20:12;20.10;99.90
26517;DHT22;14190;51.342;6.338;2022-10-17T08:22:41;20.20;99.90
26517;DHT22;14190;51.342;6.338;2022-10-17T08:25:09;20.30;99.90
26517;DHT22;14190;51.342;6.338;2022-10-17T08:27:38;20.50;99.90
26517;DHT22;14190;51.342;6.338;2022-10-17T08:30:07;20.60;99.90
26517;DHT22;14190;51.342;6.338;2022-10-17T08:32:36;20.80;99.90
26517;DHT22;14190;51.342;6.338;2022-10-17T08:35:05;20.70;99.90
26517;DHT22;14190;51.342;6.338;2022-10-17T08:37:34;20.70;99.90
26517;DHT22;14190;51.342;6.338;2022-10-17T08:40:03;20.60;99.90
26517;DHT22;14190;51.342;6.338;2022-10-17T08:42:52;20.50;99.90
26517;DHT22;14190;51.342;6.338;2022-10-17T08:45:23;20.50;99.90
26517;DHT22;14190;51.342;6.338;2022-10-17T08:48:09;20.50;99.90
26517;DHT22;14190;51.342;6.338;2022-10-17T08:53:02;20.40;99.90
26517;DHT22;14190;51.342;6.338;2022-10-17T08:55:36;20.40;99.90
26517;DHT22;14190;51.342;6.338;2022-10-17T08:58:11;20.40;99.90
26517;DHT22;14190;51.342;6.338;2022-10-17T09:00:44;20.40;99.90
26517;DHT22;14190;51.342;6.338;2022-10-17T09:03:26;20.30;99.90
26517;DHT22;14190;51.342;6.338;2022-10-17T09:05:49;20.30;99.90
26517;DHT22;14190;51.342;6.338;2022-10-17T09:08:28;20.40;99.90
26517;DHT22;14190;51.342;6.338;2022-10-17T09:11:04;20.50;99.90
26517;DHT22;14190;51.342;6.338;2022-10-17T09:16:21;20.70;99.90
26517;DHT22;14190;51.342;6.338;2022-10-17T09:18:59;20.80;99.90
26517;DHT22;14190;51.342;6.338;2022-10-17T09:22:12;20.80;99.90
26517;DHT22;14190;51.342;6.338;2022-10-17T09:23:56;20.80;99.90
26517;DHT22;14190;51.342;6.338;2022-10-17T09:26:25;20.80;99.90
26517;DHT22;14190;51.342;6.338;2022-10-17T09:28:55;20.80;99.90
26517;DHT22;14190;51.342;6.338;2022-10-17T09:31:32;20.70;99.90
26517;DHT22;14190;51.342;6.338;2022-10-17T09:33:56;20.80;99.90
26517;DHT22;14190;51.342;6.338;2022-10-17T09:36:30;20.70;99.90
26517;DHT22;14190;51.342;6.338;2022-10-17T09:39:18;20.80;99.90
26517;DHT22;14190;51.342;6.338;2022-10-17T09:41:48;20.80;99.90
26517;DHT22;14190;51.342;6.338;2022-10-17T09:44:18;20.90;99.90
26517;DHT22;14190;51.342;6.338;2022-10-17T09:46:51;20.90;99.90
26517;DHT22;14190;51.342;6.338;2022-10-17T09:49:19;20.80;99.90
26517;DHT22;14190;51.342;6.338;2022-10-17T09:51:48;20.80;99.90
26517;DHT22;14190;51.342;6.338;2022-10-17T09:54:21;20.80;99.90
26517;DHT22;14190;51.342;6.338;2022-10-17T09:56:57;20.80;99.90
26517;DHT22;14190;51.342;6.338;2022-10-17T09:59:35;20.80;99.90
26517;DHT22;14190;51.342;6.338;2022-10-17T10:04:59;20.80;99.90
26517;DHT22;14190;51.342;6.338;2022-10-17T10:07:28;20.80;99.90
26517;DHT22;14190;51.342;6.338;2022-10-17T10:09:58;20.70;99.90
26517;DHT22;14190;51.342;6.338;2022-10-17T10:12:34;20.70;99.90
26517;DHT22;14190;51.342;6.338;2022-10-17T10:14:58;20.70;99.90
26517;DHT22;14190;51.342;6.338;2022-10-17T10:17:28;20.70;99.90
26517;DHT22;14190;51.342;6.338;2022-10-17T10:19:57;20.70;99.90
26517;DHT22;14190;51.342;6.338;2022-10-17T10:22:26;20.80;99.90
26517;DHT22;14190;51.342;6.338;2022-10-17T10:25:07;20.80;99.90
26517;DHT22;14190;51.342;6.338;2022-10-17T10:27:38;20.80;99.90
26517;DHT22;14190;51.342;6.338;2022-10-17T10:30:15;20.80;99.90
26517;DHT22;14190;51.342;6.338;2022-10-17T10:32:37;20.90;99.90
26517;DHT22;14190;51.342;6.338;2022-10-17T10:35:22;20.90;99.90
26517;DHT22;14190;51.342;6.338;2022-10-17T10:37:57;20.90;99.90
26517;DHT22;14190;51.342;6.338;2022-10-17T10:40:23;20.90;99.90
26517;DHT22;14190;51.342;6.338;2022-10-17T10:42:53;21.00;99.90
26517;DHT22;14190;51.342;6.338;2022-10-17T10:45:56;21.00;99.90
26517;DHT22;14190;51.342;6.338;2022-10-17T10:47:59;21.00;99.90
26517;DHT22;14190;51.342;6.338;2022-10-17T10:55:39;20.60;99.90
26517;DHT22;14190;51.342;6.338;2022-10-17T10:58:17;20.50;99.90
26517;DHT22;14190;51.342;6.338;2022-10-17T11:00:36;20.50;99.90
26517;DHT22;14190;51.342;6.338;2022-10-17T11:03:17;20.50;99.90
26517;DHT22;14190;51.342;6.338;2022-10-17T11:05:48;20.50;99.90
26517;DHT22;14190;51.342;6.338;2022-10-17T11:11:06;20.60;99.90
26517;DHT22;14190;51.342;6.338;2022-10-17T11:13:33;20.60;99.90
26517;DHT22;14190;51.342;6.338;2022-10-17T11:21:18;20.70;99.90
26517;DHT22;14190;51.342;6.338;2022-10-17T11:23:51;20.80;99.90
26517;DHT22;14190;51.342;6.338;2022-10-17T11:26:28;20.80;99.90
26517;DHT22;14190;51.342;6.338;2022-10-17T11:28:58;20.80;99.90
26517;DHT22;14190;51.342;6.338;2022-10-17T11:31:32;20.80;99.90
26517;DHT22;14190;51.342;6.338;2022-10-17T11:35:02;20.90;99.90
26517;DHT22;14190;51.342;6.338;2022-10-17T11:36:42;20.90;99.90
26517;DHT22;14190;51.342;6.338;2022-10-17T11:39:15;20.80;99.90
26517;DHT22;14190;51.342;6.338;2022-10-17T11:41:52;20.80;99.90
26517;DHT22;14190;51.342;6.338;2022-10-17T11:47:00;20.80;99.90
26517;DHT22;14190;51.342;6.338;2022-10-17T11:49:27;20.90;99.90
26517;DHT22;14190;51.342;6.338;2022-10-17T11:52:06;20.90;99.90
26517;DHT22;14190;51.342;6.338;2022-10-17T11:54:40;20.80;99.90
26517;DHT22;14190;51.342;6.338;2022-10-17T11:57:25;20.80;99.90
26517;DHT22;14190;51.342;6.338;2022-10-17T11:59:52;20.70;99.90
26517;DHT22;14190;51.342;6.338;2022-10-17T12:05:17;20.70;99.90
26517;DHT22;14190;51.342;6.338;2022-10-17T12:07:43;20.80;99.90
26517;DHT22;14190;51.342;6.338;2022-10-17T12:10:27;20.70;99.90
26517;DHT22;14190;51.342;6.338;2022-10-17T12:12:53;20.70;99.90
26517;DHT22;14190;51.342;6.338;2022-10-17T12:17:59;20.80;99.90
26517;DHT22;14190;51.342;6.338;2022-10-17T12:20:28;20.90;99.90
26517;DHT22;14190;51.342;6.338;2022-10-17T12:23:02;20.80;99.90
26517;DHT22;14190;51.342;6.338;2022-10-17T12:25:32;20.80;99.90
26517;DHT22;14190;51.342;6.338;2022-10-17T12:28:09;20.80;99.90
26517;DHT22;14190;51.342;6.338;2022-10-17T12:30:34;20.80;99.90
26517;DHT22;14190;51.342;6.338;2022-10-17T12:35:49;20.80;99.90
26517;DHT22;14190;51.342;6.338;2022-10-17T12:38:19;20.90;99.90
26517;DHT22;14190;51.342;6.338;2022-10-17T12:40:49;20.90;99.90
26517;DHT22;14190;51.342;6.338;2022-10-17T12:51:09;21.10;99.90
26517;DHT22;14190;51.342;6.338;2022-10-17T12:56:30;21.00;99.90
26517;DHT22;14190;51.342;6.338;2022-10-17T12:59:00;20.90;99.90
26517;DHT22;14190;51.342;6.338;2022-10-17T13:01:35;21.00;99.90
26517;DHT22;14190;51.342;6.338;2022-10-17T13:03:59;21.00;99.90
26517;DHT22;14190;51.342;6.338;2022-10-17T13:06:34;20.90;99.90
26517;DHT22;14190;51.342;6.338;2022-10-17T13:11:52;20.90;99.90
26517;DHT22;14190;51.342;6.338;2022-10-17T13:14:22;20.90;99.90
26517;DHT22;14190;51.342;6.338;2022-10-17T13:16:53;20.90;99.90
26517;DHT22;14190;51.342;6.338;2022-10-17T13:19:25;20.90;99.90
26517;DHT22;14190;51.342;6.338;2022-10-17T13:21:55;20.80;99.90
26517;DHT22;14190;51.342;6.338;2022-10-17T13:24:29;20.80;99.90
26517;DHT22;14190;51.342;6.338;2022-10-17T13:26:58;20.80;99.90
26517;DHT22;14190;51.342;6.338;2022-10-17T13:29:27;20.80;99.90
26517;DHT22;14190;51.342;6.338;2022-10-17T13:31:58;20.80;99.90
26517;DHT22;14190;51.342;6.338;2022-10-17T13:34:31;20.80;99.90
26517;DHT22;14190;51.342;6.338;2022-10-17T13:37:09;20.80;99.90
26517;DHT22;14190;51.342;6.338;2022-10-17T13:39:33;20.80;99.90
26517;DHT22;14190;51.342;6.338;2022-10-17T13:42:05;20.80;99.90
26517;DHT22;14190;51.342;6.338;2022-10-17T13:44:34;20.80;99.90
26517;DHT22;14190;51.342;6.338;2022-10-17T13:47:03;20.90;99.90
26517;DHT22;14190;51.342;6.338;2022-10-17T13:49:41;20.90;99.90
26517;DHT22;14190;51.342;6.338;2022-10-17T13:52:15;21.00;99.90
26517;DHT22;14190;51.342;6.338;2022-10-17T13:54:45;21.00;99.90
26517;DHT22;14190;51.342;6.338;2022-10-17T13:57:21;21.10;99.90
26517;DHT22;14190;51.342;6.338;2022-10-17T14:02:39;21.00;99.90
26517;DHT22;14190;51.342;6.338;2022-10-17T14:05:16;20.90;99.90
26517;DHT22;14190;51.342;6.338;2022-10-17T14:07:43;20.90;99.90
26517;DHT22;14190;51.342;6.338;2022-10-17T14:10:22;20.80;99.90
26517;DHT22;14190;51.342;6.338;2022-10-17T14:12:51;20.80;99.90
26517;DHT22;14190;51.342;6.338;2022-10-17T14:15:21;20.80;99.90
26517;DHT22;14190;51.342;6.338;2022-10-17T14:17:54;20.80;99.90
26517;DHT22;14190;51.342;6.338;2022-10-17T14:20:24;20.70;99.90
26517;DHT22;14190;51.342;6.338;2022-10-17T14:22:54;20.70;99.90
26517;DHT22;14190;51.342;6.338;2022-10-17T14:25:30;20.80;99.90
26517;DHT22;14190;51.342;6.338;2022-10-17T14:28:10;20.80;99.90
26517;DHT22;14190;51.342;6.338;2022-10-17T14:30:35;20.80;99.90
26517;DHT22;14190;51.342;6.338;2022-10-17T14:33:05;20.80;99.90
26517;DHT22;14190;51.342;6.338;2022-10-17T14:35:34;20.80;99.90
26517;DHT22;14190;51.342;6.338;2022-10-17T14:38:04;20.80;99.90
26517;DHT22;14190;51.342;6.338;2022-10-17T14:40:34;20.70;99.90
26517;DHT22;14190;51.342;6.338;2022-10-17T14:43:04;20.70;99.90
26517;DHT22;14190;51.342;6.338;2022-10-17T14:45:35;20.70;99.90
26517;DHT22;14190;51.342;6.338;2022-10-17T14:48:20;20.70;99.90
26517;DHT22;14190;51.342;6.338;2022-10-17T14:53:30;20.60;99.90
26517;DHT22;14190;51.342;6.338;2022-10-17T14:56:00;20.70;99.90
26517;DHT22;14190;51.342;6.338;2022-10-17T14:58:30;20.70;99.90
26517;DHT22;14190;51.342;6.338;2022-10-17T15:01:00;20.60;99.90
26517;DHT22;14190;51.342;6.338;2022-10-17T15:03:28;20.70;99.90
26517;DHT22;14190;51.342;6.338;2022-10-17T15:05:57;20.50;99.90
26517;DHT22;14190;51.342;6.338;2022-10-17T15:08:29;20.50;99.90
26517;DHT22;14190;51.342;6.338;2022-10-17T15:10:58;20.50;99.90
26517;DHT22;14190;51.342;6.338;2022-10-17T15:13:26;20.50;99.90
26517;DHT22;14190;51.342;6.338;2022-10-17T15:15:55;20.40;99.90
26517;DHT22;14190;51.342;6.338;2022-10-17T15:18:24;20.40;99.90
26517;DHT22;14190;51.342;6.338;2022-10-17T15:20:52;20.40;99.90
26517;DHT22;14190;51.342;6.338;2022-10-17T15:23:21;20.40;99.90
26517;DHT22;14190;51.342;6.338;2022-10-17T15:25:50;20.30;99.90
26517;DHT22;14190;51.342;6.338;2022-10-17T15:28:18;20.30;99.90
26517;DHT22;14190;51.342;6.338;2022-10-17T15:30:47;20.30;99.90
26517;DHT22;14190;51.342;6.338;2022-10-17T15:33:16;20.30;99.90
26517;DHT22;14190;51.342;6.338;2022-10-17T15:35:45;20.30;99.90
26517;DHT22;14190;51.342;6.338;2022-10-17T15:38:14;20.40;99.90
26517;DHT22;14190;51.342;6.338;2022-10-17T15:40:44;20.40;99.90
26517;DHT22;14190;51.342;6.338;2022-10-17T15:43:14;20.30;99.90
26517;DHT22;14190;51.342;6.338;2022-10-17T15:45:43;20.30;99.90
26517;DHT22;14190;51.342;6.338;2022-10-17T15:48:18;20.20;99.90
26517;DHT22;14190;51.342;6.338;2022-10-17T15:50:42;20.20;99.90
26517;DHT22;14190;51.342;6.338;2022-10-17T15:53:12;20.20;99.90
26517;DHT22;14190;51.342;6.338;2022-10-17T15:55:45;20.20;99.90
26517;DHT22;14190;51.342;6.338;2022-10-17T15:58:14;20.20;99.90
26517;DHT22;14190;51.342;6.338;2022-10-17T16:00:43;20.20;99.90
26517;DHT22;14190;51.342;6.338;2022-10-17T16:03:13;20.10;99.90
26517;DHT22;14190;51.342;6.338;2022-10-17T16:05:41;20.10;99.90
26517;DHT22;14190;51.342;6.338;2022-10-17T16:08:10;20.10;99.90
26517;DHT22;14190;51.342;6.338;2022-10-17T16:10:39;20.10;99.90
26517;DHT22;14190;51.342;6.338;2022-10-17T16:13:11;20.10;99.90
26517;DHT22;14190;51.342;6.338;2022-10-17T16:15:38;20.10;99.90
26517;DHT22;14190;51.342;6.338;2022-10-17T16:18:07;20.10;99.90
26517;DHT22;14190;51.342;6.338;2022-10-17T16:20:36;20.10;99.90
26517;DHT22;14190;51.342;6.338;2022-10-17T16:23:05;20.10;99.90
26517;DHT22;14190;51.342;6.338;2022-10-17T16:25:35;20.10;99.90
26517;DHT22;14190;51.342;6.338;2022-10-17T16:28:03;20.00;99.90
26517;DHT22;14190;51.342;6.338;2022-10-17T16:30:36;20.00;99.90
26517;DHT22;14190;51.342;6.338;2022-10-17T16:33:05;20.00;99.90
26517;DHT22;14190;51.342;6.338;2022-10-17T16:35:33;20.00;99.90
26517;DHT22;14190;51.342;6.338;2022-10-17T16:38:02;19.90;99.90
26517;DHT22;14190;51.342;6.338;2022-10-17T16:40:31;19.90;99.90
26517;DHT22;14190;51.342;6.338;2022-10-17T16:43:00;19.90;99.90
26517;DHT22;14190;51.342;6.338;2022-10-17T16:45:29;19.90;99.90
26517;DHT22;14190;51.342;6.338;2022-10-17T16:47:58;19.90;99.90
26517;DHT22;14190;51.342;6.338;2022-10-17T16:50:26;19.90;99.90
26517;DHT22;14190;51.342;6.338;2022-10-17T16:52:57;19.90;99.90
26517;DHT22;14190;51.342;6.338;2022-10-17T16:55:25;19.90;99.90